Time;durP1;ratioP1;P1;durP2;ratioP2;P2;SDS_P1;SDS_P2;PMS_P1;PMS_P2;Temp;Humidity;BMP_temperature;BMP_pressure;BME280_temperature;BME280_humidity;BME280_pressure;Samples;Min_cycle;Max_cycle;Signal;HPM_P1;HPM_P2
2022/05/28 00:00:42;;;;;;;0.50;0.30;;;;;;;19.98;100.00;95238.72;5094459;28;20512;-57
2022/05/28 00:03:11;;;;;;;0.50;0.40;;;;;;;19.92;100.00;95235.44;5094163;28;20463;-57
2022/05/28 00:05:41;;;;;;;0.93;0.80;;;;;;;19.86;100.00;95231.38;5094123;28;20471;-62
2022/05/28 00:08:10;;;;;;;0.40;0.30;;;;;;;19.82;100.00;95229.66;5094415;28;20433;-57
2022/05/28 00:10:39;;;;;;;0.50;0.40;;;;;;;19.52;100.00;95210.13;5094193;28;20428;-57
2022/05/28 00:13:07;;;;;;;0.50;0.47;;;;;;;19.45;100.00;95223.31;5093765;28;20551;-57
2022/05/28 00:15:37;;;;;;;0.60;0.60;;;;;;;19.16;100.00;95228.66;5093946;28;20463;-58
2022/05/28 00:18:06;;;;;;;0.40;0.30;;;;;;;19.18;100.00;95235.28;5093685;28;20468;-58
2022/05/28 00:20:35;;;;;;;0.70;0.50;;;;;;;18.71;100.00;95234.59;5093704;28;20424;-58
2022/05/28 00:23:04;;;;;;;0.40;0.20;;;;;;;19.20;100.00;95235.75;5094156;28;20420;-58
2022/05/28 00:25:33;;;;;;;0.50;0.40;;;;;;;19.29;100.00;95233.81;5093742;28;20458;-58
2022/05/28 00:28:02;;;;;;;0.50;0.40;;;;;;;19.02;100.00;95242.34;5093699;28;20482;-58
2022/05/28 00:30:30;;;;;;;0.47;0.30;;;;;;;19.15;100.00;95238.63;5092936;28;20532;-58
2022/05/28 00:33:00;;;;;;;0.93;0.93;;;;;;;19.54;100.00;95218.66;5093426;28;20472;-58
2022/05/28 00:35:28;;;;;;;0.50;0.40;;;;;;;19.28;100.00;95199.19;5093720;28;20464;-58
2022/05/28 00:37:57;;;;;;;4.13;0.60;;;;;;;19.61;100.00;95221.59;5093744;28;20508;-58
2022/05/28 00:40:27;;;;;;;1.90;0.93;;;;;;;19.73;100.00;95220.88;5092572;28;20467;-58
2022/05/28 00:42:59;;;;;;;0.50;0.47;;;;;;;19.67;100.00;95216.81;5093317;28;20973;-59
2022/05/28 00:45:29;;;;;;;0.50;0.50;;;;;;;19.64;100.00;95207.50;5093443;28;20467;-59
2022/05/28 00:48:03;;;;;;;0.50;0.30;;;;;;;19.73;100.00;95210.13;5093509;28;20831;-59
2022/05/28 00:50:32;;;;;;;0.70;0.50;;;;;;;19.80;100.00;95211.19;5092912;28;20424;-59
2022/05/28 00:53:01;;;;;;;2.93;1.13;;;;;;;19.77;100.00;95208.34;5092856;28;20539;-58
2022/05/28 00:55:33;;;;;;;2.97;2.87;;;;;;;19.79;100.00;95209.59;5092981;28;20965;-59
2022/05/28 00:58:05;;;;;;;0.67;0.63;;;;;;;19.71;100.00;95217.75;5093096;28;20499;-59
2022/05/28 01:00:35;;;;;;;0.60;0.40;;;;;;;19.65;100.00;95203.72;5092748;28;20473;-59
2022/05/28 01:03:11;;;;;;;0.87;0.87;;;;;;;18.61;100.00;95043.56;5093086;28;20843;-59
2022/05/28 01:05:47;;;;;;;0.50;0.50;;;;;;;19.80;100.00;95205.81;5093782;28;20428;-59
2022/05/28 01:08:19;;;;;;;0.50;0.50;;;;;;;19.85;100.00;95205.59;5092689;28;20427;-59
2022/05/28 01:10:59;;;;;;;0.40;0.40;;;;;;;19.76;100.00;95196.81;5092665;28;20487;-59
2022/05/28 01:13:34;;;;;;;0.53;0.30;;;;;;;19.80;100.00;95200.41;5092438;28;20942;-59
2022/05/28 01:16:13;;;;;;;0.87;0.50;;;;;;;19.73;100.00;95184.03;5092675;28;20462;-59
2022/05/28 01:18:57;;;;;;;0.50;0.40;;;;;;;19.82;100.00;95187.44;5092287;28;20471;-58
2022/05/28 01:21:41;;;;;;;1.40;0.70;;;;;;;19.87;100.00;95181.84;5092625;28;20478;-59
2022/05/28 01:24:20;;;;;;;5.90;0.63;;;;;;;19.92;100.00;95186.22;5092509;28;20463;-59
2022/05/28 01:26:55;;;;;;;0.60;0.40;;;;;;;19.83;100.00;95182.84;5091458;28;20793;-59
2022/05/28 01:29:29;;;;;;;0.50;0.40;;;;;;;19.88;100.00;95186.13;5092429;28;20852;-59
2022/05/28 01:31:59;;;;;;;0.40;0.30;;;;;;;19.92;100.00;95186.22;5091727;28;20475;-59
2022/05/28 01:34:31;;;;;;;0.70;0.40;;;;;;;19.89;100.00;95179.59;5091627;28;20472;-59
2022/05/28 01:37:02;;;;;;;0.47;0.40;;;;;;;18.82;100.00;95020.97;5092549;28;20508;-59
2022/05/28 01:39:32;;;;;;;0.83;0.40;;;;;;;19.65;100.00;95160.69;5092056;28;20876;-59
2022/05/28 01:42:03;;;;;;;0.50;0.40;;;;;;;19.73;100.00;95180.56;5091808;28;20424;-59
2022/05/28 01:44:32;;;;;;;0.47;0.33;;;;;;;19.72;100.00;95185.13;5092047;28;20428;-59
2022/05/28 01:47:00;;;;;;;0.50;0.40;;;;;;;19.68;100.00;95181.56;5092261;28;20862;-59
2022/05/28 01:49:30;;;;;;;0.63;0.63;;;;;;;19.30;100.00;95189.69;5092052;28;20977;-59
2022/05/28 01:52:02;;;;;;;0.40;0.30;;;;;;;19.29;100.00;95188.13;5091187;28;20846;-59
2022/05/28 01:54:35;;;;;;;0.50;0.40;;;;;;;19.11;100.00;95183.97;5091509;28;20566;-59
2022/05/28 01:57:06;;;;;;;0.60;0.60;;;;;;;19.03;100.00;95187.50;5092119;28;20498;-59
2022/05/28 01:59:36;;;;;;;1.13;0.40;;;;;;;18.93;100.00;95185.19;5091956;28;20982;-59
2022/05/28 02:02:06;;;;;;;0.50;0.50;;;;;;;19.02;100.00;95185.94;5091926;28;20511;-59
2022/05/28 02:04:37;;;;;;;0.40;0.30;;;;;;;19.20;100.00;95178.56;5091770;28;20942;-59
2022/05/28 02:07:06;;;;;;;0.40;0.20;;;;;;;19.29;100.00;95160.47;5091864;28;20455;-59
2022/05/28 02:09:37;;;;;;;0.40;0.30;;;;;;;19.33;100.00;95172.91;5092752;28;20939;-59
2022/05/28 02:12:15;;;;;;;0.50;0.40;;;;;;;19.41;100.00;95165.94;5092162;28;20507;-59
2022/05/28 02:15:06;;;;;;;0.50;0.33;;;;;;;19.45;100.00;95172.25;5092042;28;20803;-59
2022/05/28 02:17:50;;;;;;;0.87;0.87;;;;;;;19.28;100.00;95164.25;5091560;28;21079;-59
2022/05/28 02:20:28;;;;;;;0.47;0.30;;;;;;;18.55;100.00;95055.59;5091859;28;20983;-59
2022/05/28 02:23:21;;;;;;;0.67;0.40;;;;;;;19.32;100.00;95167.88;5091621;28;20436;-59
2022/05/28 02:25:54;;;;;;;0.53;0.40;;;;;;;19.27;100.00;95168.88;5092204;28;20449;-59
2022/05/28 02:28:25;;;;;;;0.50;0.47;;;;;;;19.21;100.00;95158.63;5092068;28;20508;-59
2022/05/28 02:31:02;;;;;;;1.50;0.70;;;;;;;19.26;100.00;95163.81;5091864;28;20951;-59
2022/05/28 02:33:32;;;;;;;0.77;0.77;;;;;;;19.25;100.00;95167.63;5092107;28;20513;-60
2022/05/28 02:36:01;;;;;;;0.53;0.40;;;;;;;19.24;100.00;95166.03;5091532;28;20452;-60
2022/05/28 02:38:30;;;;;;;0.40;0.30;;;;;;;19.09;100.00;95159.34;5091592;28;21001;-60
2022/05/28 02:40:59;;;;;;;0.57;0.50;;;;;;;19.13;100.00;95164.84;5091568;28;20433;-59
2022/05/28 02:43:31;;;;;;;0.60;0.30;;;;;;;19.13;100.00;95171.00;5091547;28;20840;-60
2022/05/28 02:46:01;;;;;;;5.90;1.27;;;;;;;19.14;100.00;95174.47;5091558;28;20988;-60
2022/05/28 02:48:30;;;;;;;0.70;0.70;;;;;;;19.11;100.00;95177.81;5091841;28;20460;-60
2022/05/28 02:51:03;;;;;;;0.47;0.33;;;;;;;19.12;100.00;95177.50;5091540;28;20527;-60
2022/05/28 02:53:32;;;;;;;0.50;0.30;;;;;;;18.98;100.00;95175.06;5091708;28;20517;-60
2022/05/28 02:56:01;;;;;;;0.50;0.40;;;;;;;18.75;100.00;95154.97;5091320;28;20421;-60
2022/05/28 02:58:31;;;;;;;0.60;0.60;;;;;;;19.02;100.00;95178.66;5091545;28;20478;-60
2022/05/28 03:01:01;;;;;;;0.80;0.70;;;;;;;17.75;100.00;95009.91;5091235;28;20428;-60
2022/05/28 03:03:31;;;;;;;0.70;0.70;;;;;;;19.01;100.00;95182.47;5093003;28;20482;-60
2022/05/28 03:05:59;;;;;;;0.60;0.40;;;;;;;19.01;100.00;95162.88;5095009;28;20441;-60
2022/05/28 03:08:28;;;;;;;0.60;0.60;;;;;;;18.84;100.00;95169.16;5094913;28;20428;-60
2022/05/28 03:10:56;;;;;;;0.60;0.60;;;;;;;18.86;100.00;95168.81;5095166;28;20441;-60
2022/05/28 03:13:24;;;;;;;3.67;1.87;;;;;;;18.83;100.00;95140.69;5095056;28;20511;-60
2022/05/28 03:15:54;;;;;;;0.50;0.30;;;;;;;19.10;100.00;95158.22;5094927;28;20486;-60
2022/05/28 03:18:23;;;;;;;0.53;0.50;;;;;;;19.16;100.00;95154.25;5094651;28;20550;-60
2022/05/28 03:20:51;;;;;;;0.87;0.87;;;;;;;19.09;100.00;95155.88;5094878;28;20424;-60
2022/05/28 03:23:19;;;;;;;0.50;0.40;;;;;;;19.09;100.00;95148.59;5094919;28;20507;-60
2022/05/28 03:25:48;;;;;;;0.60;0.40;;;;;;;19.05;100.00;95154.97;5094836;28;20482;-60
2022/05/28 03:28:16;;;;;;;0.40;0.30;;;;;;;19.08;100.00;95156.97;5094736;28;20452;-60
2022/05/28 03:30:45;;;;;;;0.60;0.50;;;;;;;19.06;100.00;95169.94;5094704;28;20485;-61
2022/05/28 03:33:15;;;;;;;1.10;1.10;;;;;;;19.06;100.00;95178.81;5094568;28;20511;-60
2022/05/28 03:35:43;;;;;;;0.63;0.63;;;;;;;18.85;100.00;95173.38;5094188;28;21076;-60
2022/05/28 03:38:12;;;;;;;0.50;0.50;;;;;;;18.61;100.00;95181.25;5094590;28;20920;-60
2022/05/28 03:40:40;;;;;;;1.47;0.60;;;;;;;18.56;100.00;95181.44;5094747;28;20467;-60
2022/05/28 03:43:09;;;;;;;0.40;0.30;;;;;;;18.19;100.00;95161.47;5094475;28;20515;-60
2022/05/28 03:45:37;;;;;;;0.50;0.30;;;;;;;18.43;100.00;95182.41;5094259;28;20436;-60
2022/05/28 03:48:09;;;;;;;0.40;0.20;;;;;;;18.23;100.00;95169.69;5094248;28;20424;-60
2022/05/28 03:50:39;;;;;;;0.40;0.30;;;;;;;18.21;100.00;95163.84;5094605;28;20436;-60
2022/05/28 03:53:08;;;;;;;0.57;0.57;;;;;;;18.36;100.00;95176.75;5094615;28;20469;-60
2022/05/28 03:55:37;;;;;;;0.40;0.30;;;;;;;18.38;100.00;95177.22;5094151;28;20476;-61
2022/05/28 03:58:06;;;;;;;0.70;0.70;;;;;;;18.63;100.00;95172.88;5094700;28;20464;-60
2022/05/28 04:00:37;;;;;;;0.60;0.30;;;;;;;18.68;100.00;95183.44;5094406;28;20932;-60
2022/05/28 04:03:05;;;;;;;0.70;0.70;;;;;;;18.81;100.00;95171.69;5094373;28;20464;-60
2022/05/28 04:05:34;;;;;;;0.57;0.50;;;;;;;18.99;100.00;95186.59;5094270;28;20816;-60
2022/05/28 04:08:04;;;;;;;0.60;0.40;;;;;;;18.90;100.00;95191.22;5094015;28;20441;-60
2022/05/28 04:10:32;;;;;;;2.67;0.40;;;;;;;19.01;100.00;95193.22;5093896;28;20855;-59
2022/05/28 04:13:01;;;;;;;1.67;1.57;;;;;;;19.37;100.00;95181.94;5093951;28;20928;-59
2022/05/28 04:15:30;;;;;;;0.50;0.40;;;;;;;19.59;100.00;95183.50;5092579;28;20571;-59
2022/05/28 04:17:58;;;;;;;0.40;0.30;;;;;;;19.61;100.00;95182.06;5094149;28;20489;-59
2022/05/28 04:20:27;;;;;;;0.67;0.67;;;;;;;19.51;100.00;95187.84;5093926;28;21129;-59
2022/05/28 04:22:56;;;;;;;1.53;0.90;;;;;;;19.51;100.00;95189.72;5093546;28;20428;-59
2022/05/28 04:25:25;;;;;;;0.50;0.50;;;;;;;19.56;100.00;95176.09;5093027;28;20458;-59
2022/05/28 04:27:54;;;;;;;0.47;0.40;;;;;;;18.94;100.00;95072.09;5093402;28;20650;-58
2022/05/28 04:30:22;;;;;;;1.43;0.70;;;;;;;19.58;100.00;95182.72;5093442;28;20460;-58
2022/05/28 04:32:51;;;;;;;0.70;0.70;;;;;;;19.71;100.00;95175.50;5093811;28;20483;-58
2022/05/28 04:35:19;;;;;;;0.40;0.30;;;;;;;19.54;100.00;95175.63;5093459;28;20503;-58
2022/05/28 04:37:48;;;;;;;3.07;0.40;;;;;;;19.61;100.00;95170.50;5093387;28;20852;-58
2022/05/28 04:40:16;;;;;;;0.50;0.50;;;;;;;19.71;100.00;95159.34;5093276;28;20467;-58
2022/05/28 04:42:46;;;;;;;1.97;1.87;;;;;;;19.60;100.00;95177.81;5093481;28;20463;-57
2022/05/28 04:45:14;;;;;;;1.63;1.53;;;;;;;19.46;100.00;95173.81;5093129;28;20939;-57
2022/05/28 04:47:43;;;;;;;1.00;0.87;;;;;;;19.62;100.00;95180.16;5093170;28;20511;-57
2022/05/28 04:50:12;;;;;;;0.70;0.70;;;;;;;19.72;100.00;95173.59;5092951;28;20523;-57
2022/05/28 04:52:41;;;;;;;0.97;0.40;;;;;;;19.90;100.00;95183.09;5093237;28;20465;-57
2022/05/28 04:55:12;;;;;;;1.57;1.47;;;;;;;19.53;100.00;95185.59;5092916;28;20502;-58
2022/05/28 04:57:41;;;;;;;1.60;1.50;;;;;;;19.54;100.00;95148.75;5092936;28;20428;-57
2022/05/28 05:00:15;;;;;;;0.50;0.37;;;;;;;19.94;100.00;95162.47;5092927;28;20523;-57
2022/05/28 05:02:44;;;;;;;1.33;0.40;;;;;;;19.56;100.00;95171.50;5093160;28;20924;-56
2022/05/28 05:05:12;;;;;;;0.50;0.40;;;;;;;19.83;100.00;95180.16;5093229;28;20464;-57
2022/05/28 05:07:41;;;;;;;0.50;0.30;;;;;;;20.29;100.00;95173.72;5093079;28;20844;-56
2022/05/28 05:10:11;;;;;;;0.80;0.70;;;;;;;20.42;100.00;95170.69;5092937;28;20427;-56
2022/05/28 05:12:39;;;;;;;0.90;0.60;;;;;;;20.49;100.00;95172.84;5092985;28;20481;-56
2022/05/28 05:15:14;;;;;;;3.33;3.13;;;;;;;20.64;100.00;95174.88;5092583;28;20464;-56
2022/05/28 05:17:42;;;;;;;0.50;0.33;;;;;;;20.58;100.00;95174.31;5092794;28;20525;-55
2022/05/28 05:20:13;;;;;;;0.50;0.30;;;;;;;20.58;100.00;95177.00;5092985;28;20861;-55
2022/05/28 05:22:41;;;;;;;0.57;0.43;;;;;;;20.12;100.00;95167.34;5092967;28;20871;-56
2022/05/28 05:25:12;;;;;;;2.23;2.10;;;;;;;19.80;100.00;95170.03;5092590;28;20928;-55
2022/05/28 05:27:40;;;;;;;1.33;0.90;;;;;;;19.86;100.00;95164.13;5092021;28;20993;-56
2022/05/28 05:30:10;;;;;;;1.90;0.77;;;;;;;20.10;100.00;95169.59;5092432;28;20424;-55
2022/05/28 05:32:39;;;;;;;3.37;0.97;;;;;;;20.01;100.00;95165.41;5092431;28;20468;-55
2022/05/28 05:35:09;;;;;;;1.30;1.30;;;;;;;20.47;100.00;95161.59;5092147;28;20832;-56
2022/05/28 05:37:38;;;;;;;0.60;0.60;;;;;;;20.15;100.00;95087.84;5092563;28;20436;-55
2022/05/28 05:40:09;;;;;;;0.40;0.30;;;;;;;21.14;100.00;95159.16;5092716;28;20550;-55
2022/05/28 05:42:37;;;;;;;0.70;0.70;;;;;;;19.57;100.00;95025.22;5092072;28;20467;-56
2022/05/28 05:45:07;;;;;;;1.50;1.40;;;;;;;20.23;100.00;95170.44;5092568;28;20428;-55
2022/05/28 05:47:36;;;;;;;1.43;0.70;;;;;;;20.87;100.00;95166.00;5092065;28;20464;-56
2022/05/28 05:50:08;;;;;;;0.57;0.50;;;;;;;20.81;100.00;95163.88;5091626;28;20420;-58
2022/05/28 05:52:36;;;;;;;0.87;0.47;;;;;;;21.39;100.00;95162.59;5092454;28;20482;-50
2022/05/28 05:55:12;;;;;;;1.67;0.60;;;;;;;21.69;100.00;95165.75;5092137;28;20788;-50
2022/05/28 05:57:40;;;;;;;0.83;0.83;;;;;;;21.63;100.00;95169.84;5091935;28;20487;-50
2022/05/28 06:00:10;;;;;;;1.40;1.30;;;;;;;21.76;100.00;95168.63;5091950;28;20433;-50
2022/05/28 06:02:38;;;;;;;1.10;0.97;;;;;;;21.17;100.00;95163.88;5092134;28;20452;-50
2022/05/28 06:05:10;;;;;;;0.60;0.60;;;;;;;21.37;100.00;95145.97;5091946;28;20432;-55
2022/05/28 06:07:38;;;;;;;0.77;0.50;;;;;;;21.55;100.00;95133.00;5091750;28;20491;-55
2022/05/28 06:10:10;;;;;;;1.53;0.97;;;;;;;20.92;100.00;95022.22;5091615;28;20482;-56
2022/05/28 06:12:38;;;;;;;0.80;0.60;;;;;;;22.11;100.00;95148.06;5092048;28;20424;-55
2022/05/28 06:15:08;;;;;;;0.60;0.50;;;;;;;22.57;100.00;95141.13;5091596;28;21050;-55
2022/05/28 06:17:37;;;;;;;1.30;1.20;;;;;;;21.81;100.00;95090.16;5091455;28;20476;-56
2022/05/28 06:20:10;;;;;;;1.50;1.33;;;;;;;22.50;100.00;95147.13;5091721;28;20490;-55
2022/05/28 06:22:38;;;;;;;3.33;0.90;;;;;;;22.31;100.00;95127.38;5091928;28;20429;-55
2022/05/28 06:25:08;;;;;;;1.23;1.13;;;;;;;22.20;100.00;95140.59;5091676;28;20498;-55
2022/05/28 06:27:38;;;;;;;3.50;1.53;;;;;;;22.91;100.00;95148.53;5091536;28;20493;-57
2022/05/28 06:30:08;;;;;;;1.23;0.80;;;;;;;23.00;100.00;95138.31;5091827;28;20901;-56
2022/05/28 06:32:37;;;;;;;1.33;1.33;;;;;;;22.58;100.00;95131.88;5091511;28;20912;-56
2022/05/28 06:35:06;;;;;;;1.17;0.60;;;;;;;22.34;100.00;95138.22;5091506;28;21007;-56
2022/05/28 06:37:36;;;;;;;0.90;0.90;;;;;;;22.55;100.00;95141.47;5091815;28;20463;-56
2022/05/28 06:40:06;;;;;;;3.03;1.40;;;;;;;23.43;100.00;95133.88;5095732;28;20428;-49
2022/05/28 06:42:35;;;;;;;1.03;1.03;;;;;;;23.46;100.00;95133.94;5095407;28;20553;-50
2022/05/28 06:45:04;;;;;;;4.00;0.63;;;;;;;22.86;100.00;95051.53;5095565;28;20460;-49
2022/05/28 06:47:33;;;;;;;0.70;0.70;;;;;;;24.12;100.00;95130.22;5095516;28;20444;-49
2022/05/28 06:52:50;;;;;;;7.73;1.20;;;;;;;23.84;100.00;95135.84;5094739;28;20503;-49
2022/05/28 06:55:19;;;;;;;0.60;0.50;;;;;;;24.13;100.00;95116.34;5095438;28;20420;-50
2022/05/28 06:57:48;;;;;;;0.60;0.57;;;;;;;24.48;100.00;95118.88;5095295;28;20428;-56
2022/05/28 07:00:17;;;;;;;2.00;0.70;;;;;;;24.80;100.00;95109.34;5094811;28;20428;-55
2022/05/28 07:02:46;;;;;;;4.30;1.23;;;;;;;24.72;100.00;95096.81;5095547;28;20461;-56
2022/05/28 07:05:16;;;;;;;0.50;0.40;;;;;;;25.08;100.00;95100.84;5095622;28;20471;-56
2022/05/28 07:07:44;;;;;;;1.97;1.10;;;;;;;25.14;100.00;95096.69;5095011;28;20436;-56
2022/05/28 07:10:14;;;;;;;0.70;0.67;;;;;;;25.56;100.00;95078.25;5094780;28;20918;-56
2022/05/28 07:12:43;;;;;;;0.80;0.80;;;;;;;26.01;100.00;95085.34;5094340;28;20436;-57
2022/05/28 07:15:13;;;;;;;0.50;0.50;;;;;;;26.47;100.00;95074.94;5094879;28;20460;-57
2022/05/28 07:17:41;;;;;;;1.47;1.37;;;;;;;26.54;100.00;95085.09;5094604;28;20519;-57
2022/05/28 07:20:11;;;;;;;1.17;1.07;;;;;;;26.76;100.00;95073.22;5094641;28;20475;-57
2022/05/28 07:22:40;;;;;;;0.73;0.70;;;;;;;27.01;98.83;95079.63;5094337;28;20458;-57
2022/05/28 07:25:10;;;;;;;2.00;0.50;;;;;;;27.25;92.05;95079.00;5094621;28;20432;-57
2022/05/28 07:27:40;;;;;;;1.77;0.90;;;;;;;26.67;95.06;95073.53;5094554;28;20948;-57
2022/05/28 07:30:10;;;;;;;0.73;0.73;;;;;;;27.49;90.85;95067.47;5094497;28;20458;-58
2022/05/28 07:32:38;;;;;;;1.17;1.07;;;;;;;26.71;92.09;95070.84;5094377;28;20975;-58
2022/05/28 07:35:08;;;;;;;0.77;0.77;;;;;;;27.03;94.40;95067.22;5094545;28;20520;-58
2022/05/28 07:37:36;;;;;;;2.10;1.23;;;;;;;27.45;93.48;95065.91;5094648;28;20563;-57
2022/05/28 07:40:06;;;;;;;1.30;1.20;;;;;;;27.13;91.90;95068.44;5094434;28;20485;-57
2022/05/28 07:42:34;;;;;;;0.93;0.83;;;;;;;27.52;89.13;95063.22;5094445;28;20452;-57
2022/05/28 07:45:06;;;;;;;0.80;0.70;;;;;;;28.06;86.93;95054.81;5094450;28;20475;-57
2022/05/28 07:47:35;;;;;;;1.80;0.50;;;;;;;28.65;85.05;95050.63;5094624;28;20460;-56
2022/05/28 07:50:03;;;;;;;0.93;0.93;;;;;;;29.21;77.42;95048.97;5094183;28;20467;-60
2022/05/28 07:52:31;;;;;;;2.30;0.90;;;;;;;29.67;72.38;95035.94;5094517;28;20416;-55
2022/05/28 07:55:00;;;;;;;1.57;1.47;;;;;;;29.36;78.08;95043.09;5093912;28;20475;-54
2022/05/28 07:57:28;;;;;;;1.17;0.80;;;;;;;29.04;72.79;95034.19;5093924;28;21006;-56
2022/05/28 07:59:57;;;;;;;1.03;0.70;;;;;;;28.67;76.32;95042.81;5094633;28;20493;-56
2022/05/28 08:02:26;;;;;;;0.93;0.50;;;;;;;29.11;75.48;95030.66;5094022;28;20428;-55
2022/05/28 08:04:55;;;;;;;0.60;0.60;;;;;;;29.02;76.54;95031.06;5093899;28;20516;-56
2022/05/28 08:07:23;;;;;;;0.60;0.60;;;;;;;27.17;78.95;94832.53;5093952;28;20464;-56
2022/05/28 08:09:52;;;;;;;1.47;1.37;;;;;;;28.42;80.87;95025.66;5093651;28;20486;-56
2022/05/28 08:12:20;;;;;;;4.30;0.80;;;;;;;28.69;81.93;95024.09;5094185;28;20507;-56
2022/05/28 08:14:48;;;;;;;0.80;0.80;;;;;;;28.00;83.28;95022.88;5093732;28;20458;-57
2022/05/28 08:17:17;;;;;;;0.60;0.60;;;;;;;27.58;86.75;95023.53;5093407;28;20531;-57
2022/05/28 08:19:47;;;;;;;0.73;0.70;;;;;;;27.10;93.23;95026.44;5093514;28;20448;-58
2022/05/28 08:25:01;;;;;;;0.60;0.50;;;;;;;26.14;100.00;94988.09;5093691;28;20424;-57
2022/05/28 08:27:29;;;;;;;0.70;0.70;;;;;;;26.51;100.00;95005.09;5093479;28;20475;-56
2022/05/28 08:29:57;;;;;;;1.03;0.47;;;;;;;26.07;100.00;95012.44;5093724;28;20519;-56
2022/05/28 08:32:26;;;;;;;2.43;0.80;;;;;;;25.78;100.00;94947.03;5093225;28;20459;-55
2022/05/28 08:34:56;;;;;;;1.20;1.17;;;;;;;26.13;100.00;95008.28;5093738;28;20815;-56
2022/05/28 08:37:24;;;;;;;0.43;0.30;;;;;;;25.81;100.00;94975.34;5093245;28;20992;-55
2022/05/28 08:39:52;;;;;;;2.60;1.00;;;;;;;25.91;100.00;94993.69;5093556;28;20424;-55
2022/05/28 08:42:24;;;;;;;0.60;0.50;;;;;;;26.40;100.00;94947.94;5093293;28;20424;-56
2022/05/28 08:44:55;;;;;;;0.70;0.50;;;;;;;27.03;98.41;94988.31;5094078;28;20463;-57
2022/05/28 08:47:29;;;;;;;1.67;0.90;;;;;;;25.87;100.00;94982.03;5093698;28;20432;-57
2022/05/28 08:49:59;;;;;;;0.83;0.83;;;;;;;26.10;100.00;95004.34;5093027;28;20462;-56
2022/05/28 08:52:33;;;;;;;1.70;1.23;;;;;;;25.78;100.00;94986.97;5093171;28;20893;-57
2022/05/28 08:55:08;;;;;;;0.97;0.87;;;;;;;25.96;100.00;95009.63;5093414;28;20460;-56
2022/05/28 08:57:47;;;;;;;1.43;1.33;;;;;;;26.11;100.00;94977.97;5092945;28;20893;-56
2022/05/28 09:24:22;;;;;;;0.63;0.50;;;;;;;24.80;100.00;94789.50;5073161;27;2258675;-56
2022/05/28 09:27:07;;;;;;;1.60;0.97;;;;;;;25.40;100.00;94843.53;5129473;28;20189;-56
2022/05/28 09:30:32;;;;;;;0.73;0.73;;;;;;;26.61;100.00;95009.03;5128857;28;20525;-57
2022/05/28 09:33:53;;;;;;;0.70;0.60;;;;;;;27.67;98.68;95005.69;5129428;28;20482;-56
2022/05/28 09:36:35;;;;;;;0.70;0.70;;;;;;;27.96;94.16;95001.06;5129042;28;20474;-57
2022/05/28 09:39:35;;;;;;;0.40;0.40;;;;;;;27.22;98.82;94995.41;5111837;28;20796;-57
2022/05/28 09:42:12;;;;;;;3.93;0.80;;;;;;;27.08;100.00;94985.25;5129032;28;20455;-57
2022/05/28 09:45:06;;;;;;;0.80;0.80;;;;;;;27.33;100.00;94979.09;5129437;28;20462;-57
2022/05/28 09:47:46;;;;;;;0.60;0.60;;;;;;;27.65;95.01;94988.19;5129223;28;20423;-57
2022/05/28 09:50:24;;;;;;;0.70;0.70;;;;;;;27.30;92.82;94918.06;5129106;28;20422;-57
2022/05/28 09:55:56;;;;;;;1.63;1.53;;;;;;;27.90;96.82;94986.28;5129583;28;20914;-57
2022/05/28 09:58:29;;;;;;;1.23;1.07;;;;;;;27.93;91.83;94909.22;5129465;28;20507;-56
2022/05/28 10:01:12;;;;;;;9.33;1.07;;;;;;;27.67;88.87;94967.59;5129025;28;20459;-56
2022/05/28 10:06:31;;;;;;;0.70;0.70;;;;;;;28.21;83.37;94958.28;5128977;28;20434;-56
2022/05/28 10:09:14;;;;;;;1.03;0.57;;;;;;;28.60;76.93;94958.25;5129289;28;20522;-56
2022/05/28 10:11:55;;;;;;;0.40;0.37;;;;;;;28.89;74.88;94957.03;5128848;28;20463;-56
2022/05/28 10:14:25;;;;;;;0.50;0.40;;;;;;;28.65;75.02;94960.59;5128815;28;20446;-55
2022/05/28 10:16:59;;;;;;;0.77;0.60;;;;;;;28.23;88.87;94936.13;5128703;28;20432;-55
2022/05/28 10:19:40;;;;;;;3.20;0.53;;;;;;;28.56;88.28;94941.13;5129130;28;20837;-55
2022/05/28 10:22:15;;;;;;;0.40;0.30;;;;;;;27.96;95.27;94941.13;5128805;28;20509;-55
2022/05/28 10:24:46;;;;;;;4.43;0.87;;;;;;;27.54;100.00;94943.81;5118104;28;20435;-56
2022/05/28 10:27:33;;;;;;;1.40;0.73;;;;;;;27.53;98.42;94939.53;5114713;28;20455;-56
2022/05/28 10:30:06;;;;;;;6.33;0.50;;;;;;;27.57;100.00;94941.13;5115187;28;20857;-57
2022/05/28 10:32:43;;;;;;;0.73;0.70;;;;;;;27.62;96.36;94931.78;5114927;28;21002;-57
2022/05/28 10:35:31;;;;;;;18.27;1.30;;;;;;;27.84;95.40;94933.34;5115093;28;20466;-56
2022/05/28 10:38:09;;;;;;;0.53;0.50;;;;;;;27.71;92.21;94932.16;5114734;28;20809;-57
2022/05/28 10:40:48;;;;;;;0.50;0.40;;;;;;;27.71;90.40;94921.28;5114996;28;20425;-57
2022/05/28 10:43:29;;;;;;;0.40;0.40;;;;;;;27.75;93.76;94918.56;5114647;28;21009;-57
2022/05/28 10:46:07;;;;;;;1.53;0.30;;;;;;;27.88;91.08;94906.13;5114640;28;20546;-57
2022/05/28 10:48:49;;;;;;;0.50;0.30;;;;;;;27.97;88.24;94898.31;5114480;28;21085;-56
2022/05/28 10:51:24;;;;;;;0.60;0.30;;;;;;;27.96;92.77;94904.94;5114460;28;20481;-57
2022/05/28 10:54:12;;;;;;;0.40;0.40;;;;;;;27.84;92.55;94908.06;5114102;28;20547;-55
2022/05/28 10:56:55;;;;;;;2.57;0.70;;;;;;;27.75;94.66;94904.94;5114322;28;20457;-55
2022/05/28 10:59:47;;;;;;;0.70;0.70;;;;;;;27.64;96.81;94897.56;5114425;28;20498;-55
2022/05/28 11:02:47;;;;;;;0.90;0.90;;;;;;;27.20;97.48;94899.00;5113993;28;20522;-55
2022/05/28 11:05:27;;;;;;;0.60;0.40;;;;;;;27.25;100.00;94883.06;5113803;28;20537;-55
2022/05/28 11:08:05;;;;;;;1.40;0.70;;;;;;;27.36;100.00;94877.63;5113867;28;21106;-55
2022/05/28 11:14:04;;;;;;;0.40;0.37;;;;;;;27.50;100.00;94851.25;5113927;28;20490;-55
2022/05/28 11:16:52;;;;;;;0.50;0.50;;;;;;;27.70;100.00;94852.41;5111867;28;20448;-55
2022/05/28 11:19:35;;;;;;;0.70;0.70;;;;;;;27.37;98.13;94852.78;5114018;28;20453;-56
2022/05/28 11:22:27;;;;;;;4.00;0.80;;;;;;;27.30;100.00;94828.25;5113942;28;20506;-56
2022/05/28 11:24:58;;;;;;;1.47;0.80;;;;;;;27.27;100.00;94848.09;5113925;28;20431;-56
2022/05/28 11:27:44;;;;;;;1.93;0.90;;;;;;;27.40;99.19;94837.66;5113756;28;20424;-55
2022/05/28 11:30:18;;;;;;;0.97;0.60;;;;;;;27.58;99.10;94836.47;5113965;28;20496;-56
2022/05/28 11:32:53;;;;;;;0.60;0.60;;;;;;;27.20;100.00;94837.19;5113893;28;20506;-55
2022/05/28 11:35:34;;;;;;;0.70;0.50;;;;;;;26.69;100.00;94823.03;5112961;28;20486;-55
2022/05/28 11:38:09;;;;;;;1.53;1.43;;;;;;;26.61;100.00;94840.50;5113571;28;20514;-55
2022/05/28 11:40:47;;;;;;;0.80;0.80;;;;;;;26.95;100.00;94831.69;5113522;28;20510;-55
2022/05/28 11:43:21;;;;;;;2.50;1.37;;;;;;;26.86;100.00;94838.66;5113565;28;20510;-55
2022/05/28 11:45:54;;;;;;;4.53;1.60;;;;;;;26.78;100.00;94842.53;5113598;28;20435;-55
2022/05/28 11:51:31;;;;;;;1.10;1.00;;;;;;;26.85;100.00;94834.38;5113379;28;20517;-55
2022/05/28 11:54:06;;;;;;;1.30;1.30;;;;;;;26.86;100.00;94830.50;5113190;28;20979;-55
2022/05/28 11:56:34;;;;;;;0.93;0.93;;;;;;;26.70;100.00;94830.03;5113070;28;20427;-56
2022/05/28 11:59:07;;;;;;;1.80;1.70;;;;;;;26.99;100.00;94829.75;5113557;28;20492;-56
2022/05/28 12:01:46;;;;;;;0.87;0.80;;;;;;;26.98;100.00;94830.94;5113202;28;20939;-55
2022/05/28 12:04:16;;;;;;;0.50;0.30;;;;;;;27.51;100.00;94841.91;5113153;28;20455;-55
2022/05/28 12:07:02;;;;;;;0.50;0.50;;;;;;;27.41;96.30;94847.34;5112736;28;20497;-56
2022/05/28 12:09:33;;;;;;;0.90;0.90;;;;;;;27.62;97.11;94848.16;5112720;28;20432;-55
2022/05/28 12:12:17;;;;;;;0.40;0.40;;;;;;;27.51;96.52;94838.41;5113046;28;20432;-55
2022/05/28 12:14:47;;;;;;;5.67;0.57;;;;;;;27.56;96.57;94841.53;5112343;28;20510;-55
2022/05/28 12:17:34;;;;;;;0.73;0.73;;;;;;;27.81;93.92;94851.63;5111625;28;20447;-55
2022/05/28 12:20:10;;;;;;;1.77;1.67;;;;;;;27.20;91.33;94850.78;5111860;28;20470;-55
2022/05/28 12:22:41;;;;;;;4.50;1.07;;;;;;;27.32;98.89;94850.44;5111896;28;20462;-54
2022/05/28 12:25:32;;;;;;;1.63;0.77;;;;;;;27.52;97.77;94824.44;5112180;28;20427;-55
2022/05/28 12:28:23;;;;;;;0.50;0.47;;;;;;;27.73;89.24;94829.84;5111337;28;20522;-55
2022/05/28 12:30:54;;;;;;;0.70;0.70;;;;;;;27.76;89.20;94800.28;5110346;28;20439;-56
2022/05/28 12:33:27;;;;;;;0.50;0.40;;;;;;;28.25;86.95;94816.56;5110467;28;21027;-56